Terminal Aerodrome Forecast
Issued by NWS Jackson, MS

Home | Current Version | Previous Version | Text Only | Print | Product List | Glossary On
Versions: 1 2 3 4 5 6 7 8 9 10 11 12 13 14 15 16 17
000
FTUS44 KMEG 281250 AAA
TAFTUP
TAF AMD
KTUP 281250Z 2813/2912 01008G19KT P6SM -RA OVC007
     FM281600 01007KT P6SM VCSH OVC007
     FM290100 03008KT 6SM BR OVC015=

USA.gov is the U.S. government's official web portal to all federal, state and local government web resources and services.